Aérodrome :
LOGIN :

S'inscrire | Disclaimer

   EN    FR    IT 

 










Légende :    VFR   VFR Marginal   IFR   IFR Intensif   IFR Très Intensif
Visi : 
Plafond : 
>= 8 km
>= 3000ft
5 à 8 km
1000 à 3000 ft
1500m à 5 km
500 à 1000 ft
800 à 1500m
200 à 500 ft
< 800m
< 200 ft
Symboles :   Orages  Brouillard  Fortes neiges  Fortes précipitations  Vent > 20 kt
SIGMETs :   Divers  Orages  Givrage  Turbulence  Onde Orograph.  Cendres Volcan.







- Altitude de l'aérodrome : 290 ft
- Code IATA : OSI


LDOS - Osijek

DERNIER METAR :
  • 230930Z 32007KT 9999 FEW017 FEW027TCU OVC030 21/19 Q1009

METARs EXPIRÉS :
  • 230900Z 28008KT 9999 SCT013 OVC027 20/18 Q1009
  • 230830Z 29008KT 9999 FEW013 OVC027 20/18 Q1009
  • 230800Z 28007KT 9999 FEW013 BKN027 20/18 Q1009
  • 230730Z 28007KT 9999 FEW013 BKN027 20/18 Q1009
  • 230700Z 30007KT 9999 SCT013 OVC027 20/19 Q1009

TAF TAF LDOS
Valide du 23 à 06h jusqu'au 24 à 06h UTC


230525Z 2306/2406 34008KT 9999 SCT015 BKN030 TX23/2314Z TN16/2403Z
TEMPO 2306/2320 SHRA SCT025TCU BKN030
PROB30
TEMPO 2309/2319 TSRA FEW020CB BKN025
Pas de NOTAMs connus pour ce terrain.
3 SIGMETs publiés pour la FIR Zagreb (LDZO) :
 
Orages noyés dans la masse
LDZO SIGMET 7 VALID 231000/231100 LDZA
LDZO ZAGREB FIR EMBD TS FCST WI N4556 E01851 - N4507 E01910 - N4514 E01824 - N4544 E01823 - N4556 E01851 TOP FL400 STNR NC=
Orages noyés dans la masse
LDZO SIGMET 6 VALID 230900/231000 LDZA
LDZO ZAGREB FIR EMBD TS OBS WI N4556 E01851 - N4519 E01907 - N4514 E01837 - N4550 E01834 - N4556 E01851 TOP FL400 STNR NC=
Orages noyés dans la masse
LDZO SIGMET 5 VALID 230900/231100 LDZA
LDZO ZAGREB FIR EMBD TS OBS WI N4251 E01526 - N4355 E01403 - N4413 E01439 - N4322 E01613 - N4331 E01711 - N4231 E01825 - N4139 E01748 - N4251 E01526 TOP FL390 MOV SE 10KT NC=



MET'MAP, la Météo Aéronautique d'un coup d'oeil ! - Copyright ORBIFLY Décembre 2007 - Disclaimer

ORBIFLY MET'MAP TEAM :

Programmation & Développement : Alexandra Zaïnal
Conception & Développement : Baudouin d'Aumeries
Co-Programmation & Développement : Marc-Olivier Méhu
Soutien technique & logistique : Manuel Goepfert

Contact : metmap@orbifly.com




SOURCES & CREDITS :

   NOAA